Papaaloa, HI (96780)

4:35 PM HST on February 07, 2016 (GMT -1000)
Hamakua Coast | | Change Station
CLOSE
Current Station
Personal Weather Station
Location: Ninole, HI
Elevation: 1120 ft
Nearby Weather Stations

Elev 1120 ft 19.92 °N, 155.18 °W | Updated 2 minutes ago

Partly Cloudy
Partly Cloudy
61.9 °F
Feels Like 61.9 °F
N
6.0
Wind Variable Wind from West

Today
High -- | Low -- °F
--% Chance of Precip.
Yesterday
High -- | Low -- °F
Precip. -- in
Pressure 29.96 in
Visibility 10.0 miles
Clouds Few 4500 ft
Few 7000 ft
Dew Point 60 °F
Humidity 92%
Rainfall 1.17 in
Snow Depth Not available.
6:54 AM 6:16 PM
Waning Crescent, 0% visible
METAR PHTO 080153Z 35018G28KT 10SM FEW045 FEW070 23/16 A2996 RMK AO2 PK WND 35028/0148 SLP143 T02280156
Pressure 29.96 in
Visibility 10.0 miles
Clouds Few 4500 ft
Few 7000 ft
Dew Point 60 °F
Humidity 92%
Rainfall 1.17 in
Snow Depth Not available.
6:54 AM 6:16 PM
Waning Crescent, 0% visible
METAR PHTO 080153Z 35018G28KT 10SM FEW045 FEW070 23/16 A2996 RMK AO2 PK WND 35028/0148 SLP143 T02280156

10-Day Weather Forecast

Almanac

Astronomy

Feb. 07, 2016 Rise Set
Actual Time
Civil Twilight
Nautical Twilight
Astronomical Twilight
Moon
Length of Visible Light
Length of Day
Tomorrow will be .
, % of the Moon is Illuminated

Today's Extremes

State Highs State Lows

Community

WunderPhotos

Upload Photos

1,891,373 photos uploaded!

WunderBlog® & News

Nearby

Air Quality

  Air Quality AQ Index Pollutant
Not available.

Snow Depth

Station Depth Elevation

Earthquake Activity

City Distance Mag. Time & Date
Minimum magnitude displayed is 2.5.

Coastal Water Temperatures

Place Temperature

Stations

Nearby Weather Stations

Station Location Temp. Windchill Dew Point Humidity Wind Precip. Elev Updated Type
                   

Watches & Warnings

There are currently no watches in effect.